Погода Манагуана 2 недели

Манагуа, Никарагуа

28 февраля-12 марта
  • 28февраля
    Сегодня
    +22°
    +35°
    Небольшая облачность
    ВремяПогодаТемператураВлажностьДавлениеВетер, м/сВероятность осадков
    00:00Ясно и безоблачно+25°C73 %755 мм4.2 м/с2 %
    03:00Ясно и безоблачно+24°C81 %754 мм3.1 м/с4 %
    06:00Практически безоблачно+23°C83 %755 мм2.8 м/с6 %
    09:00Облачно с прояснениями+29°C62 %756 мм5.8 м/с13 %
    12:00Облачно с прояснениями+33°C38 %754 мм7.2 м/с7 %
    15:00Небольшая облачность+35°C35 %752 мм7.5 м/с2 %
    18:00Ясно и безоблачно+32°C43 %753 мм6.1 м/с2 %
    21:00Ясно и безоблачно+28°C57 %755 мм5.1 м/с2 %
  • 29февраля
    Четверг
    +23°
    +34°
    Небольшая облачность и лёгкий дождик
    ВремяПогодаТемператураВлажностьДавлениеВетер, м/сВероятность осадков
    00:00Ясно и безоблачно+25°C74 %756 мм4.2 м/с1 %
    03:00Ясно и безоблачно+24°C80 %755 мм2.7 м/с5 %
    06:00Ясно и безоблачно+23°C84 %756 мм2.6 м/с8 %
    09:00Облачно с прояснениями+29°C61 %757 мм5.7 м/с19 %
    12:00Облачно с прояснениями+33°C42 %755 мм6.9 м/с27 %
    15:00Небольшая облачность и лёгкий дождик+33°C45 %753 мм6.9 м/с34 %
    18:00Практически безоблачно+31°C52 %754 мм5.7 м/с17 %
    21:00Ясно и безоблачно+28°C66 %756 мм4.6 м/с3 %
  • 01марта
    Пятница
    +22°
    +35°
    Облачно с прояснениями
    ВремяПогодаТемператураВлажностьДавлениеВетер, м/сВероятность осадков
    00:00Ясно и безоблачно+25°C76 %756 мм3.8 м/с8 %
    03:00Практически безоблачно+24°C80 %755 мм2.8 м/с26 %
    06:00Практически безоблачно+24°C81 %756 мм2.7 м/с33 %
    09:00Практически безоблачно+29°C62 %757 мм5.7 м/с28 %
    12:00Облачно с прояснениями+33°C41 %755 мм7.0 м/с26 %
    15:00Облачно с прояснениями+35°C40 %753 мм7.4 м/с16 %
    18:00Небольшая облачность+31°C57 %754 мм5.5 м/с10 %
    21:00Практически безоблачно+27°C70 %756 мм4.8 м/с2 %
  • 02марта
    Суббота
    +21°
    +35°
    Небольшая облачность
    ВремяПогодаТемператураВлажностьДавлениеВетер, м/сВероятность осадков
    00:00Ясно и безоблачно+25°C78 %756 мм4.0 м/с7 %
    03:00Небольшая облачность+24°C86 %755 мм2.7 м/с25 %
    06:00Небольшая облачность+23°C87 %756 мм2.1 м/с29 %
    09:00Облачно с прояснениями+29°C60 %757 мм5.6 м/с30 %
    12:00Облачно с прояснениями+33°C49 %756 мм6.5 м/с19 %
    15:00Небольшая облачность+34°C45 %754 мм6.7 м/с18 %
    18:00Ясно и безоблачно+31°C57 %754 мм5.5 м/с5 %
    21:00Ясно и безоблачно+28°C61 %755 мм4.8 м/с2 %
  • 03марта
    Воскресенье
    +22°
    +35°
    Ясно и безоблачно
    ВремяПогодаТемператураВлажностьДавлениеВетер, м/сВероятность осадков
    00:00Ясно и безоблачно+25°C71 %756 мм4.0 м/с5 %
    03:00Ясно и безоблачно+23°C85 %755 мм2.6 м/с15 %
    06:00Ясно и безоблачно+22°C88 %755 мм2.0 м/с27 %
    09:00Ясно и безоблачно+28°C63 %757 мм5.0 м/с23 %
    12:00Ясно и безоблачно+33°C37 %755 мм6.3 м/с5 %
    15:00Ясно и безоблачно+35°C34 %752 мм6.4 м/с2 %
    18:00Ясно и безоблачно+31°C49 %753 мм4.3 м/с2 %
    21:00Ясно и безоблачно+28°C59 %754 мм3.9 м/с2 %
Мы используем cookies
Соглашаюсь